sensor_id;sensor_type;location;lat;lon;timestamp;P1;durP1;ratioP1;P2;durP2;ratioP2
44248;SDS011;29923;48.718;9.272;2023-01-01T00:01:36;95.35;;;57.03;;
44248;SDS011;29923;48.718;9.272;2023-01-01T00:04:04;87.22;;;50.55;;
44248;SDS011;29923;48.718;9.272;2023-01-01T00:06:31;81.65;;;50.28;;
44248;SDS011;29923;48.718;9.272;2023-01-01T00:08:57;75.90;;;47.35;;
44248;SDS011;29923;48.718;9.272;2023-01-01T00:11:41;78.38;;;47.72;;
44248;SDS011;29923;48.718;9.272;2023-01-01T00:14:06;79.32;;;46.85;;
44248;SDS011;29923;48.718;9.272;2023-01-01T00:16:31;63.63;;;41.13;;
44248;SDS011;29923;48.718;9.272;2023-01-01T00:18:57;64.88;;;39.28;;
44248;SDS011;29923;48.718;9.272;2023-01-01T00:21:22;61.67;;;35.45;;
44248;SDS011;29923;48.718;9.272;2023-01-01T00:23:47;111.70;;;77.65;;
44248;SDS011;29923;48.718;9.272;2023-01-01T00:26:14;54.70;;;34.60;;
44248;SDS011;29923;48.718;9.272;2023-01-01T00:28:40;49.22;;;30.08;;
44248;SDS011;29923;48.718;9.272;2023-01-01T00:31:10;57.90;;;36.17;;
44248;SDS011;29923;48.718;9.272;2023-01-01T00:33:41;55.85;;;32.75;;
44248;SDS011;29923;48.718;9.272;2023-01-01T00:36:13;51.70;;;33.08;;
44248;SDS011;29923;48.718;9.272;2023-01-01T00:38:40;58.63;;;34.05;;
44248;SDS011;29923;48.718;9.272;2023-01-01T00:41:07;56.10;;;34.95;;
44248;SDS011;29923;48.718;9.272;2023-01-01T00:43:32;57.80;;;34.17;;
44248;SDS011;29923;48.718;9.272;2023-01-01T00:45:58;61.58;;;33.92;;
44248;SDS011;29923;48.718;9.272;2023-01-01T00:48:23;51.80;;;32.40;;
44248;SDS011;29923;48.718;9.272;2023-01-01T00:50:49;55.33;;;33.20;;
44248;SDS011;29923;48.718;9.272;2023-01-01T00:53:15;55.58;;;32.65;;
44248;SDS011;29923;48.718;9.272;2023-01-01T00:55:41;44.30;;;28.20;;
44248;SDS011;29923;48.718;9.272;2023-01-01T00:58:07;47.13;;;29.17;;
44248;SDS011;29923;48.718;9.272;2023-01-01T01:00:32;52.05;;;29.63;;
44248;SDS011;29923;48.718;9.272;2023-01-01T01:02:58;48.00;;;29.02;;
44248;SDS011;29923;48.718;9.272;2023-01-01T01:05:23;49.97;;;28.92;;
44248;SDS011;29923;48.718;9.272;2023-01-01T01:07:49;46.17;;;27.92;;
44248;SDS011;29923;48.718;9.272;2023-01-01T01:10:14;43.65;;;25.60;;
44248;SDS011;29923;48.718;9.272;2023-01-01T01:12:39;36.25;;;23.58;;
44248;SDS011;29923;48.718;9.272;2023-01-01T01:15:05;32.45;;;18.73;;
44248;SDS011;29923;48.718;9.272;2023-01-01T01:17:31;33.63;;;20.48;;
44248;SDS011;29923;48.718;9.272;2023-01-01T01:19:57;34.70;;;19.30;;
44248;SDS011;29923;48.718;9.272;2023-01-01T01:22:22;33.40;;;20.98;;
44248;SDS011;29923;48.718;9.272;2023-01-01T01:24:48;34.95;;;21.58;;
44248;SDS011;29923;48.718;9.272;2023-01-01T01:27:14;34.78;;;21.23;;
44248;SDS011;29923;48.718;9.272;2023-01-01T01:29:39;35.45;;;21.70;;
44248;SDS011;29923;48.718;9.272;2023-01-01T01:32:04;41.53;;;22.55;;
44248;SDS011;29923;48.718;9.272;2023-01-01T01:34:30;36.28;;;21.35;;
44248;SDS011;29923;48.718;9.272;2023-01-01T01:36:55;33.55;;;20.77;;
44248;SDS011;29923;48.718;9.272;2023-01-01T01:39:21;32.33;;;21.10;;
44248;SDS011;29923;48.718;9.272;2023-01-01T01:41:46;33.97;;;21.23;;
44248;SDS011;29923;48.718;9.272;2023-01-01T01:47:31;33.03;;;20.08;;
44248;SDS011;29923;48.718;9.272;2023-01-01T01:50:31;32.72;;;20.75;;
44248;SDS011;29923;48.718;9.272;2023-01-01T01:52:58;31.25;;;18.73;;
44248;SDS011;29923;48.718;9.272;2023-01-01T01:55:28;24.92;;;16.20;;
44248;SDS011;29923;48.718;9.272;2023-01-01T01:57:55;33.92;;;19.00;;
44248;SDS011;29923;48.718;9.272;2023-01-01T02:00:20;24.75;;;15.23;;
44248;SDS011;29923;48.718;9.272;2023-01-01T02:02:53;23.55;;;15.75;;
44248;SDS011;29923;48.718;9.272;2023-01-01T02:05:20;25.90;;;14.57;;
44248;SDS011;29923;48.718;9.272;2023-01-01T02:07:46;23.73;;;14.85;;
44248;SDS011;29923;48.718;9.272;2023-01-01T02:10:12;21.83;;;13.98;;
44248;SDS011;29923;48.718;9.272;2023-01-01T02:12:38;19.60;;;13.15;;
44248;SDS011;29923;48.718;9.272;2023-01-01T02:15:03;23.05;;;11.93;;
44248;SDS011;29923;48.718;9.272;2023-01-01T02:17:33;20.70;;;13.18;;
44248;SDS011;29923;48.718;9.272;2023-01-01T02:20:28;23.17;;;13.82;;
44248;SDS011;29923;48.718;9.272;2023-01-01T02:23:01;24.15;;;13.48;;
44248;SDS011;29923;48.718;9.272;2023-01-01T02:31:14;21.23;;;12.02;;
44248;SDS011;29923;48.718;9.272;2023-01-01T02:33:42;17.77;;;11.98;;
44248;SDS011;29923;48.718;9.272;2023-01-01T02:36:08;18.20;;;11.65;;
44248;SDS011;29923;48.718;9.272;2023-01-01T02:38:48;18.05;;;11.50;;
44248;SDS011;29923;48.718;9.272;2023-01-01T02:41:23;18.83;;;11.55;;
44248;SDS011;29923;48.718;9.272;2023-01-01T02:43:50;22.73;;;11.77;;
44248;SDS011;29923;48.718;9.272;2023-01-01T02:46:16;21.42;;;12.43;;
44248;SDS011;29923;48.718;9.272;2023-01-01T02:51:20;23.08;;;10.48;;
44248;SDS011;29923;48.718;9.272;2023-01-01T03:15:05;15.02;;;8.93;;
44248;SDS011;29923;48.718;9.272;2023-01-01T03:18:37;15.35;;;8.95;;
44248;SDS011;29923;48.718;9.272;2023-01-01T03:20:31;15.93;;;9.82;;
44248;SDS011;29923;48.718;9.272;2023-01-01T03:22:59;12.57;;;8.63;;
44248;SDS011;29923;48.718;9.272;2023-01-01T03:25:28;12.18;;;8.30;;
44248;SDS011;29923;48.718;9.272;2023-01-01T03:28:31;13.27;;;7.57;;
44248;SDS011;29923;48.718;9.272;2023-01-01T03:30:49;13.60;;;8.38;;
44248;SDS011;29923;48.718;9.272;2023-01-01T03:33:28;15.05;;;8.55;;
44248;SDS011;29923;48.718;9.272;2023-01-01T03:38:35;12.50;;;7.30;;
44248;SDS011;29923;48.718;9.272;2023-01-01T03:41:51;11.55;;;7.05;;
44248;SDS011;29923;48.718;9.272;2023-01-01T03:43:57;11.27;;;7.18;;
44248;SDS011;29923;48.718;9.272;2023-01-01T03:48:51;8.75;;;5.60;;
44248;SDS011;29923;48.718;9.272;2023-01-01T04:00:05;18.55;;;5.95;;
44248;SDS011;29923;48.718;9.272;2023-01-01T04:02:37;10.60;;;5.03;;
44248;SDS011;29923;48.718;9.272;2023-01-01T04:05:05;10.07;;;5.28;;
44248;SDS011;29923;48.718;9.272;2023-01-01T04:07:34;10.45;;;5.43;;
44248;SDS011;29923;48.718;9.272;2023-01-01T04:09:59;10.82;;;6.20;;
44248;SDS011;29923;48.718;9.272;2023-01-01T04:12:28;12.07;;;6.22;;
44248;SDS011;29923;48.718;9.272;2023-01-01T04:14:54;11.27;;;6.35;;
44248;SDS011;29923;48.718;9.272;2023-01-01T04:17:19;9.70;;;5.63;;
44248;SDS011;29923;48.718;9.272;2023-01-01T04:19:45;8.45;;;5.28;;
44248;SDS011;29923;48.718;9.272;2023-01-01T04:22:10;11.18;;;6.25;;
44248;SDS011;29923;48.718;9.272;2023-01-01T04:24:35;9.70;;;5.38;;
44248;SDS011;29923;48.718;9.272;2023-01-01T04:27:01;9.70;;;5.20;;
44248;SDS011;29923;48.718;9.272;2023-01-01T04:29:26;13.20;;;5.60;;
44248;SDS011;29923;48.718;9.272;2023-01-01T04:31:52;9.43;;;4.90;;
44248;SDS011;29923;48.718;9.272;2023-01-01T04:34:17;6.63;;;4.78;;
44248;SDS011;29923;48.718;9.272;2023-01-01T04:36:42;7.75;;;5.10;;
44248;SDS011;29923;48.718;9.272;2023-01-01T04:39:08;7.22;;;4.47;;
44248;SDS011;29923;48.718;9.272;2023-01-01T04:41:33;9.10;;;5.15;;
44248;SDS011;29923;48.718;9.272;2023-01-01T04:43:59;8.55;;;4.63;;
44248;SDS011;29923;48.718;9.272;2023-01-01T04:46:24;7.93;;;5.30;;
44248;SDS011;29923;48.718;9.272;2023-01-01T04:48:50;6.93;;;5.05;;
44248;SDS011;29923;48.718;9.272;2023-01-01T04:51:16;9.98;;;5.03;;
44248;SDS011;29923;48.718;9.272;2023-01-01T04:53:42;7.25;;;4.88;;
44248;SDS011;29923;48.718;9.272;2023-01-01T04:56:10;8.60;;;4.85;;
44248;SDS011;29923;48.718;9.272;2023-01-01T04:58:37;7.88;;;5.00;;
44248;SDS011;29923;48.718;9.272;2023-01-01T05:01:04;8.32;;;5.07;;
44248;SDS011;29923;48.718;9.272;2023-01-01T05:03:29;9.68;;;5.40;;
44248;SDS011;29923;48.718;9.272;2023-01-01T05:06:02;5.95;;;4.15;;
44248;SDS011;29923;48.718;9.272;2023-01-01T05:08:32;8.85;;;4.90;;
44248;SDS011;29923;48.718;9.272;2023-01-01T05:11:00;7.97;;;4.88;;
44248;SDS011;29923;48.718;9.272;2023-01-01T05:13:29;11.55;;;5.43;;
44248;SDS011;29923;48.718;9.272;2023-01-01T05:15:54;9.18;;;4.90;;
44248;SDS011;29923;48.718;9.272;2023-01-01T05:18:20;11.15;;;5.43;;
44248;SDS011;29923;48.718;9.272;2023-01-01T05:20:45;7.65;;;4.20;;
44248;SDS011;29923;48.718;9.272;2023-01-01T05:23:10;8.48;;;4.93;;
44248;SDS011;29923;48.718;9.272;2023-01-01T05:25:36;8.70;;;5.13;;
44248;SDS011;29923;48.718;9.272;2023-01-01T05:28:01;6.97;;;4.75;;
44248;SDS011;29923;48.718;9.272;2023-01-01T05:30:26;10.73;;;4.70;;
44248;SDS011;29923;48.718;9.272;2023-01-01T05:32:52;8.38;;;4.88;;
44248;SDS011;29923;48.718;9.272;2023-01-01T05:35:17;6.75;;;4.15;;
44248;SDS011;29923;48.718;9.272;2023-01-01T05:37:42;7.03;;;4.78;;
44248;SDS011;29923;48.718;9.272;2023-01-01T05:40:08;7.28;;;4.18;;
44248;SDS011;29923;48.718;9.272;2023-01-01T05:42:34;11.15;;;4.75;;
44248;SDS011;29923;48.718;9.272;2023-01-01T05:45:00;8.70;;;4.47;;
44248;SDS011;29923;48.718;9.272;2023-01-01T05:47:26;8.82;;;5.10;;
44248;SDS011;29923;48.718;9.272;2023-01-01T05:49:52;10.82;;;5.85;;
44248;SDS011;29923;48.718;9.272;2023-01-01T05:52:17;8.25;;;5.30;;
44248;SDS011;29923;48.718;9.272;2023-01-01T05:54:43;9.02;;;5.20;;
44248;SDS011;29923;48.718;9.272;2023-01-01T05:57:08;7.95;;;5.25;;
44248;SDS011;29923;48.718;9.272;2023-01-01T05:59:33;8.05;;;4.97;;
44248;SDS011;29923;48.718;9.272;2023-01-01T06:01:59;10.15;;;5.22;;
44248;SDS011;29923;48.718;9.272;2023-01-01T06:04:24;7.03;;;5.22;;
44248;SDS011;29923;48.718;9.272;2023-01-01T06:06:49;7.68;;;4.63;;
44248;SDS011;29923;48.718;9.272;2023-01-01T06:09:15;7.68;;;5.35;;
44248;SDS011;29923;48.718;9.272;2023-01-01T06:11:40;9.65;;;5.40;;
44248;SDS011;29923;48.718;9.272;2023-01-01T06:14:05;7.65;;;5.40;;
44248;SDS011;29923;48.718;9.272;2023-01-01T06:16:31;8.40;;;5.18;;
44248;SDS011;29923;48.718;9.272;2023-01-01T06:18:57;10.93;;;5.22;;
44248;SDS011;29923;48.718;9.272;2023-01-01T06:21:24;10.38;;;5.47;;
44248;SDS011;29923;48.718;9.272;2023-01-01T06:23:51;12.45;;;5.60;;
44248;SDS011;29923;48.718;9.272;2023-01-01T06:26:17;9.32;;;5.07;;
44248;SDS011;29923;48.718;9.272;2023-01-01T06:28:45;10.55;;;5.28;;
44248;SDS011;29923;48.718;9.272;2023-01-01T06:31:11;7.75;;;5.18;;
44248;SDS011;29923;48.718;9.272;2023-01-01T06:33:38;7.88;;;5.32;;
44248;SDS011;29923;48.718;9.272;2023-01-01T06:36:05;7.68;;;5.25;;
44248;SDS011;29923;48.718;9.272;2023-01-01T06:38:32;10.27;;;5.65;;
44248;SDS011;29923;48.718;9.272;2023-01-01T06:41:00;7.35;;;4.93;;
44248;SDS011;29923;48.718;9.272;2023-01-01T06:43:28;10.00;;;5.03;;
44248;SDS011;29923;48.718;9.272;2023-01-01T06:46:00;9.15;;;5.32;;
44248;SDS011;29923;48.718;9.272;2023-01-01T06:48:27;15.15;;;5.93;;
44248;SDS011;29923;48.718;9.272;2023-01-01T06:50:53;7.78;;;5.32;;
44248;SDS011;29923;48.718;9.272;2023-01-01T06:53:18;12.70;;;5.43;;
44248;SDS011;29923;48.718;9.272;2023-01-01T06:55:48;8.98;;;5.35;;
44248;SDS011;29923;48.718;9.272;2023-01-01T06:58:13;9.75;;;4.75;;
44248;SDS011;29923;48.718;9.272;2023-01-01T07:00:38;9.07;;;4.60;;
44248;SDS011;29923;48.718;9.272;2023-01-01T07:03:04;8.20;;;4.97;;
44248;SDS011;29923;48.718;9.272;2023-01-01T07:05:29;10.63;;;5.28;;
44248;SDS011;29923;48.718;9.272;2023-01-01T07:07:55;8.70;;;4.97;;
44248;SDS011;29923;48.718;9.272;2023-01-01T07:10:20;6.55;;;4.97;;
44248;SDS011;29923;48.718;9.272;2023-01-01T07:12:45;6.25;;;4.15;;
44248;SDS011;29923;48.718;9.272;2023-01-01T07:15:10;12.60;;;4.65;;
44248;SDS011;29923;48.718;9.272;2023-01-01T07:17:36;7.80;;;4.40;;
44248;SDS011;29923;48.718;9.272;2023-01-01T07:20:01;9.18;;;4.82;;
44248;SDS011;29923;48.718;9.272;2023-01-01T07:22:27;8.20;;;3.88;;
44248;SDS011;29923;48.718;9.272;2023-01-01T07:24:52;7.72;;;3.75;;
44248;SDS011;29923;48.718;9.272;2023-01-01T07:27:18;5.53;;;3.72;;
44248;SDS011;29923;48.718;9.272;2023-01-01T07:29:43;6.68;;;3.50;;
44248;SDS011;29923;48.718;9.272;2023-01-01T07:32:12;9.27;;;3.60;;
44248;SDS011;29923;48.718;9.272;2023-01-01T07:34:37;7.65;;;3.67;;
44248;SDS011;29923;48.718;9.272;2023-01-01T07:37:03;5.90;;;3.22;;
44248;SDS011;29923;48.718;9.272;2023-01-01T07:39:28;8.30;;;3.22;;
44248;SDS011;29923;48.718;9.272;2023-01-01T07:41:53;4.38;;;2.78;;
44248;SDS011;29923;48.718;9.272;2023-01-01T07:44:19;4.90;;;3.38;;
44248;SDS011;29923;48.718;9.272;2023-01-01T07:46:44;8.10;;;3.88;;
44248;SDS011;29923;48.718;9.272;2023-01-01T07:49:10;6.40;;;3.72;;
44248;SDS011;29923;48.718;9.272;2023-01-01T07:51:35;9.40;;;3.75;;
44248;SDS011;29923;48.718;9.272;2023-01-01T07:54:00;6.25;;;3.67;;
44248;SDS011;29923;48.718;9.272;2023-01-01T07:56:26;8.95;;;4.15;;
44248;SDS011;29923;48.718;9.272;2023-01-01T07:58:51;9.10;;;4.45;;
44248;SDS011;29923;48.718;9.272;2023-01-01T08:01:17;6.20;;;3.65;;
44248;SDS011;29923;48.718;9.272;2023-01-01T08:03:43;4.97;;;3.63;;
44248;SDS011;29923;48.718;9.272;2023-01-01T08:06:12;6.43;;;4.03;;
44248;SDS011;29923;48.718;9.272;2023-01-01T08:08:37;6.75;;;4.57;;
44248;SDS011;29923;48.718;9.272;2023-01-01T08:11:03;8.63;;;5.15;;
44248;SDS011;29923;48.718;9.272;2023-01-01T08:13:29;10.68;;;4.63;;
44248;SDS011;29923;48.718;9.272;2023-01-01T08:15:56;8.00;;;4.40;;
44248;SDS011;29923;48.718;9.272;2023-01-01T08:18:21;9.10;;;5.05;;
44248;SDS011;29923;48.718;9.272;2023-01-01T08:20:47;12.60;;;9.48;;
44248;SDS011;29923;48.718;9.272;2023-01-01T08:23:12;11.73;;;4.88;;
44248;SDS011;29923;48.718;9.272;2023-01-01T08:25:38;8.38;;;5.32;;
44248;SDS011;29923;48.718;9.272;2023-01-01T08:28:03;8.98;;;4.72;;
44248;SDS011;29923;48.718;9.272;2023-01-01T08:30:28;10.77;;;4.90;;
44248;SDS011;29923;48.718;9.272;2023-01-01T08:32:54;9.95;;;4.85;;
44248;SDS011;29923;48.718;9.272;2023-01-01T08:35:19;13.77;;;5.05;;
44248;SDS011;29923;48.718;9.272;2023-01-01T08:37:44;9.20;;;5.63;;
44248;SDS011;29923;48.718;9.272;2023-01-01T08:40:11;10.45;;;4.70;;
44248;SDS011;29923;48.718;9.272;2023-01-01T08:42:37;8.88;;;5.00;;
44248;SDS011;29923;48.718;9.272;2023-01-01T08:45:02;12.43;;;5.00;;
44248;SDS011;29923;48.718;9.272;2023-01-01T08:47:28;7.32;;;4.20;;
44248;SDS011;29923;48.718;9.272;2023-01-01T08:49:53;10.20;;;4.05;;
44248;SDS011;29923;48.718;9.272;2023-01-01T08:52:19;9.88;;;3.92;;
44248;SDS011;29923;48.718;9.272;2023-01-01T08:54:45;6.68;;;3.92;;
44248;SDS011;29923;48.718;9.272;2023-01-01T08:57:10;10.80;;;3.60;;
44248;SDS011;29923;48.718;9.272;2023-01-01T08:59:36;6.13;;;3.65;;
44248;SDS011;29923;48.718;9.272;2023-01-01T09:02:01;10.50;;;3.67;;
44248;SDS011;29923;48.718;9.272;2023-01-01T09:04:27;10.68;;;3.88;;
44248;SDS011;29923;48.718;9.272;2023-01-01T09:06:53;8.32;;;3.95;;
44248;SDS011;29923;48.718;9.272;2023-01-01T09:09:18;10.25;;;4.18;;
44248;SDS011;29923;48.718;9.272;2023-01-01T09:11:50;7.32;;;3.42;;
44248;SDS011;29923;48.718;9.272;2023-01-01T09:14:16;7.45;;;4.00;;
44248;SDS011;29923;48.718;9.272;2023-01-01T09:16:42;7.25;;;3.40;;
44248;SDS011;29923;48.718;9.272;2023-01-01T09:19:07;8.55;;;3.58;;
44248;SDS011;29923;48.718;9.272;2023-01-01T09:21:32;5.28;;;3.25;;
44248;SDS011;29923;48.718;9.272;2023-01-01T09:23:58;5.72;;;3.35;;
44248;SDS011;29923;48.718;9.272;2023-01-01T09:26:23;6.10;;;3.42;;
44248;SDS011;29923;48.718;9.272;2023-01-01T09:28:49;6.32;;;3.60;;
44248;SDS011;29923;48.718;9.272;2023-01-01T09:31:14;9.38;;;3.42;;
44248;SDS011;29923;48.718;9.272;2023-01-01T09:33:40;8.05;;;3.58;;
44248;SDS011;29923;48.718;9.272;2023-01-01T09:38:38;8.52;;;4.20;;
44248;SDS011;29923;48.718;9.272;2023-01-01T09:41:08;9.85;;;4.90;;
44248;SDS011;29923;48.718;9.272;2023-01-01T09:46:09;8.27;;;4.53;;
44248;SDS011;29923;48.718;9.272;2023-01-01T09:48:36;13.38;;;5.05;;
44248;SDS011;29923;48.718;9.272;2023-01-01T09:51:03;12.15;;;5.50;;
44248;SDS011;29923;48.718;9.272;2023-01-01T09:53:31;8.02;;;4.38;;
44248;SDS011;29923;48.718;9.272;2023-01-01T09:55:59;9.43;;;4.85;;
44248;SDS011;29923;48.718;9.272;2023-01-01T09:58:27;8.45;;;4.22;;
44248;SDS011;29923;48.718;9.272;2023-01-01T10:00:58;11.30;;;3.97;;
44248;SDS011;29923;48.718;9.272;2023-01-01T10:06:09;11.02;;;3.83;;
44248;SDS011;29923;48.718;9.272;2023-01-01T10:11:25;7.38;;;3.75;;
44248;SDS011;29923;48.718;9.272;2023-01-01T10:14:00;5.85;;;3.78;;
44248;SDS011;29923;48.718;9.272;2023-01-01T10:19:48;5.68;;;3.15;;
44248;SDS011;29923;48.718;9.272;2023-01-01T10:22:26;9.60;;;3.63;;
44248;SDS011;29923;48.718;9.272;2023-01-01T10:25:02;13.95;;;3.53;;
44248;SDS011;29923;48.718;9.272;2023-01-01T10:27:40;5.28;;;2.90;;
44248;SDS011;29923;48.718;9.272;2023-01-01T10:30:17;6.28;;;2.95;;
44248;SDS011;29923;48.718;9.272;2023-01-01T10:32:45;6.53;;;3.50;;
44248;SDS011;29923;48.718;9.272;2023-01-01T10:35:13;6.93;;;4.03;;
44248;SDS011;29923;48.718;9.272;2023-01-01T10:37:40;10.30;;;3.42;;
44248;SDS011;29923;48.718;9.272;2023-01-01T10:40:13;7.53;;;3.90;;
44248;SDS011;29923;48.718;9.272;2023-01-01T10:42:44;7.82;;;3.53;;
44248;SDS011;29923;48.718;9.272;2023-01-01T10:45:15;7.85;;;4.35;;
44248;SDS011;29923;48.718;9.272;2023-01-01T10:56:03;10.88;;;4.90;;
44248;SDS011;29923;48.718;9.272;2023-01-01T10:58:35;9.55;;;4.53;;
44248;SDS011;29923;48.718;9.272;2023-01-01T11:01:09;9.20;;;4.78;;
44248;SDS011;29923;48.718;9.272;2023-01-01T11:03:52;9.02;;;4.65;;
44248;SDS011;29923;48.718;9.272;2023-01-01T11:08:57;13.35;;;4.53;;
44248;SDS011;29923;48.718;9.272;2023-01-01T11:11:28;13.27;;;4.88;;
44248;SDS011;29923;48.718;9.272;2023-01-01T11:14:01;10.02;;;4.28;;
44248;SDS011;29923;48.718;9.272;2023-01-01T11:16:30;10.07;;;4.25;;
44248;SDS011;29923;48.718;9.272;2023-01-01T11:18:59;9.18;;;3.70;;
44248;SDS011;29923;48.718;9.272;2023-01-01T11:21:29;10.50;;;4.22;;
44248;SDS011;29923;48.718;9.272;2023-01-01T11:27:10;8.75;;;4.00;;
44248;SDS011;29923;48.718;9.272;2023-01-01T11:29:36;8.50;;;3.22;;
44248;SDS011;29923;48.718;9.272;2023-01-01T11:32:01;8.77;;;3.88;;
44248;SDS011;29923;48.718;9.272;2023-01-01T11:34:36;8.48;;;4.22;;
44248;SDS011;29923;48.718;9.272;2023-01-01T11:39:44;9.32;;;3.65;;
44248;SDS011;29923;48.718;9.272;2023-01-01T11:42:18;7.28;;;4.00;;
44248;SDS011;29923;48.718;9.272;2023-01-01T11:44:50;11.27;;;3.72;;
44248;SDS011;29923;48.718;9.272;2023-01-01T11:47:22;11.63;;;3.90;;
44248;SDS011;29923;48.718;9.272;2023-01-01T11:49:57;8.65;;;3.72;;
44248;SDS011;29923;48.718;9.272;2023-01-01T11:52:34;7.68;;;3.45;;
44248;SDS011;29923;48.718;9.272;2023-01-01T11:55:02;7.65;;;3.17;;
44248;SDS011;29923;48.718;9.272;2023-01-01T11:57:36;10.10;;;2.40;;
44248;SDS011;29923;48.718;9.272;2023-01-01T12:00:04;10.80;;;3.03;;
44248;SDS011;29923;48.718;9.272;2023-01-01T12:02:42;8.35;;;2.70;;
44248;SDS011;29923;48.718;9.272;2023-01-01T12:07:43;9.30;;;2.60;;
44248;SDS011;29923;48.718;9.272;2023-01-01T12:10:32;6.72;;;2.80;;
44248;SDS011;29923;48.718;9.272;2023-01-01T12:13:04;9.95;;;2.63;;
44248;SDS011;29923;48.718;9.272;2023-01-01T12:15:36;7.57;;;2.75;;
44248;SDS011;29923;48.718;9.272;2023-01-01T12:18:32;7.20;;;2.33;;
44248;SDS011;29923;48.718;9.272;2023-01-01T12:21:05;7.53;;;2.38;;
44248;SDS011;29923;48.718;9.272;2023-01-01T12:23:35;7.05;;;2.33;;
44248;SDS011;29923;48.718;9.272;2023-01-01T12:28:33;8.73;;;2.30;;
44248;SDS011;29923;48.718;9.272;2023-01-01T12:50:02;7.80;;;2.80;;
44248;SDS011;29923;48.718;9.272;2023-01-01T12:58:15;4.85;;;2.20;;
44248;SDS011;29923;48.718;9.272;2023-01-01T13:00:49;6.38;;;2.33;;
44248;SDS011;29923;48.718;9.272;2023-01-01T13:03:58;10.15;;;2.50;;
44248;SDS011;29923;48.718;9.272;2023-01-01T13:07:07;6.40;;;2.80;;
44248;SDS011;29923;48.718;9.272;2023-01-01T13:09:20;7.03;;;2.08;;
44248;SDS011;29923;48.718;9.272;2023-01-01T13:11:56;7.43;;;2.50;;
44248;SDS011;29923;48.718;9.272;2023-01-01T13:14:24;7.50;;;2.33;;
44248;SDS011;29923;48.718;9.272;2023-01-01T13:16:51;5.85;;;2.25;;
44248;SDS011;29923;48.718;9.272;2023-01-01T13:19:35;7.85;;;3.35;;
44248;SDS011;29923;48.718;9.272;2023-01-01T13:38:45;15.55;;;5.43;;
44248;SDS011;29923;48.718;9.272;2023-01-01T13:49:30;13.18;;;2.45;;
44248;SDS011;29923;48.718;9.272;2023-01-01T13:57:26;9.95;;;2.85;;
44248;SDS011;29923;48.718;9.272;2023-01-01T14:02:47;8.70;;;3.10;;
44248;SDS011;29923;48.718;9.272;2023-01-01T14:05:36;11.05;;;2.60;;
44248;SDS011;29923;48.718;9.272;2023-01-01T14:08:02;9.70;;;2.60;;
44248;SDS011;29923;48.718;9.272;2023-01-01T14:13:13;13.95;;;5.20;;
44248;SDS011;29923;48.718;9.272;2023-01-01T14:18:32;16.77;;;6.32;;
44248;SDS011;29923;48.718;9.272;2023-01-01T14:20:58;16.13;;;6.50;;
44248;SDS011;29923;48.718;9.272;2023-01-01T14:23:29;14.10;;;7.30;;
44248;SDS011;29923;48.718;9.272;2023-01-01T14:25:56;13.80;;;7.43;;
44248;SDS011;29923;48.718;9.272;2023-01-01T14:28:26;14.52;;;7.45;;
44248;SDS011;29923;48.718;9.272;2023-01-01T14:30:53;19.25;;;7.43;;
44248;SDS011;29923;48.718;9.272;2023-01-01T14:33:24;14.00;;;7.30;;
44248;SDS011;29923;48.718;9.272;2023-01-01T14:38:29;15.25;;;6.70;;
44248;SDS011;29923;48.718;9.272;2023-01-01T14:43:45;12.98;;;6.30;;
44248;SDS011;29923;48.718;9.272;2023-01-01T14:46:12;14.20;;;6.20;;
44248;SDS011;29923;48.718;9.272;2023-01-01T14:48:46;16.15;;;7.53;;
44248;SDS011;29923;48.718;9.272;2023-01-01T14:51:13;18.55;;;6.63;;
44248;SDS011;29923;48.718;9.272;2023-01-01T14:53:39;11.70;;;6.15;;
44248;SDS011;29923;48.718;9.272;2023-01-01T14:56:05;14.32;;;6.05;;
44248;SDS011;29923;48.718;9.272;2023-01-01T14:58:31;11.07;;;5.45;;
44248;SDS011;29923;48.718;9.272;2023-01-01T15:01:16;14.55;;;5.45;;
44248;SDS011;29923;48.718;9.272;2023-01-01T15:03:56;14.35;;;5.80;;
44248;SDS011;29923;48.718;9.272;2023-01-01T15:06:23;14.93;;;6.10;;
44248;SDS011;29923;48.718;9.272;2023-01-01T15:08:49;15.57;;;4.95;;
44248;SDS011;29923;48.718;9.272;2023-01-01T15:11:15;9.60;;;4.97;;
44248;SDS011;29923;48.718;9.272;2023-01-01T15:13:41;25.17;;;6.07;;
44248;SDS011;29923;48.718;9.272;2023-01-01T15:16:17;12.63;;;4.85;;
44248;SDS011;29923;48.718;9.272;2023-01-01T15:18:44;12.38;;;6.15;;
44248;SDS011;29923;48.718;9.272;2023-01-01T15:21:11;16.60;;;5.63;;
44248;SDS011;29923;48.718;9.272;2023-01-01T15:23:50;12.88;;;5.60;;
44248;SDS011;29923;48.718;9.272;2023-01-01T15:26:25;13.82;;;5.80;;
44248;SDS011;29923;48.718;9.272;2023-01-01T15:28:51;11.45;;;5.60;;
44248;SDS011;29923;48.718;9.272;2023-01-01T15:31:16;13.40;;;6.13;;
44248;SDS011;29923;48.718;9.272;2023-01-01T15:33:47;13.00;;;5.50;;
44248;SDS011;29923;48.718;9.272;2023-01-01T15:36:13;17.42;;;6.78;;
44248;SDS011;29923;48.718;9.272;2023-01-01T15:38:44;20.15;;;5.95;;
44248;SDS011;29923;48.718;9.272;2023-01-01T15:46:47;15.07;;;5.03;;
44248;SDS011;29923;48.718;9.272;2023-01-01T15:49:28;10.65;;;5.20;;
44248;SDS011;29923;48.718;9.272;2023-01-01T15:51:55;12.98;;;5.88;;
44248;SDS011;29923;48.718;9.272;2023-01-01T15:54:22;16.27;;;6.82;;
44248;SDS011;29923;48.718;9.272;2023-01-01T15:56:47;12.90;;;5.55;;
44248;SDS011;29923;48.718;9.272;2023-01-01T15:59:16;10.27;;;5.38;;
44248;SDS011;29923;48.718;9.272;2023-01-01T16:01:47;15.98;;;5.45;;
44248;SDS011;29923;48.718;9.272;2023-01-01T16:06:44;15.63;;;5.63;;
44248;SDS011;29923;48.718;9.272;2023-01-01T16:09:15;12.15;;;5.70;;
44248;SDS011;29923;48.718;9.272;2023-01-01T16:11:42;17.25;;;5.70;;
44248;SDS011;29923;48.718;9.272;2023-01-01T16:14:08;15.48;;;6.03;;
44248;SDS011;29923;48.718;9.272;2023-01-01T16:16:33;15.70;;;6.70;;
44248;SDS011;29923;48.718;9.272;2023-01-01T16:18:59;12.75;;;6.18;;
44248;SDS011;29923;48.718;9.272;2023-01-01T16:21:28;12.82;;;5.55;;
44248;SDS011;29923;48.718;9.272;2023-01-01T16:23:55;17.02;;;5.50;;
44248;SDS011;29923;48.718;9.272;2023-01-01T16:26:20;18.88;;;6.80;;
44248;SDS011;29923;48.718;9.272;2023-01-01T16:28:47;13.15;;;6.00;;
44248;SDS011;29923;48.718;9.272;2023-01-01T16:31:46;14.20;;;7.20;;
44248;SDS011;29923;48.718;9.272;2023-01-01T16:34:04;15.05;;;7.13;;
44248;SDS011;29923;48.718;9.272;2023-01-01T16:36:30;13.98;;;6.75;;
44248;SDS011;29923;48.718;9.272;2023-01-01T16:38:55;32.72;;;7.63;;
44248;SDS011;29923;48.718;9.272;2023-01-01T16:41:21;23.05;;;13.75;;
44248;SDS011;29923;48.718;9.272;2023-01-01T16:43:46;22.20;;;12.75;;
44248;SDS011;29923;48.718;9.272;2023-01-01T16:46:12;19.52;;;12.48;;
44248;SDS011;29923;48.718;9.272;2023-01-01T16:48:38;25.83;;;9.80;;
44248;SDS011;29923;48.718;9.272;2023-01-01T16:51:04;9.32;;;4.80;;
44248;SDS011;29923;48.718;9.272;2023-01-01T16:53:29;11.13;;;4.20;;
44248;SDS011;29923;48.718;9.272;2023-01-01T16:55:55;11.70;;;4.45;;
44248;SDS011;29923;48.718;9.272;2023-01-01T16:58:20;14.73;;;6.05;;
44248;SDS011;29923;48.718;9.272;2023-01-01T17:00:46;13.60;;;5.95;;
44248;SDS011;29923;48.718;9.272;2023-01-01T17:03:12;12.73;;;4.97;;
44248;SDS011;29923;48.718;9.272;2023-01-01T17:05:38;13.80;;;5.03;;
44248;SDS011;29923;48.718;9.272;2023-01-01T17:08:03;10.93;;;4.60;;
44248;SDS011;29923;48.718;9.272;2023-01-01T17:10:29;9.70;;;4.40;;
44248;SDS011;29923;48.718;9.272;2023-01-01T17:12:54;10.63;;;3.63;;
44248;SDS011;29923;48.718;9.272;2023-01-01T17:15:25;11.70;;;4.05;;
44248;SDS011;29923;48.718;9.272;2023-01-01T17:17:54;8.32;;;3.65;;
44248;SDS011;29923;48.718;9.272;2023-01-01T17:20:20;12.05;;;3.22;;
44248;SDS011;29923;48.718;9.272;2023-01-01T17:22:45;12.80;;;3.53;;
44248;SDS011;29923;48.718;9.272;2023-01-01T17:25:10;8.10;;;3.03;;